createdAt,value
2019-02-14T00:01:19.694Z,6.83
2019-02-14T00:03:47.183Z,7.67
2019-02-14T00:06:14.633Z,7.97
2019-02-14T00:08:42.002Z,7.50
2019-02-14T00:11:09.344Z,7.33
2019-02-14T00:13:36.806Z,8.07
2019-02-14T00:16:04.401Z,8.63
2019-02-14T00:18:31.844Z,7.73
2019-02-14T00:20:59.207Z,6.43
2019-02-14T00:23:26.707Z,6.63
2019-02-14T00:25:54.225Z,7.63
2019-02-14T00:28:21.681Z,7.10
2019-02-14T00:30:49.099Z,6.47
2019-02-14T00:33:16.603Z,6.67
2019-02-14T00:35:43.950Z,6.93
2019-02-14T00:38:11.422Z,6.57
2019-02-14T00:40:38.900Z,6.80
2019-02-14T00:43:06.284Z,5.67
2019-02-14T00:45:34.748Z,6.97
2019-02-14T00:48:02.312Z,6.87
2019-02-14T00:50:29.783Z,7.37
2019-02-14T00:52:57.253Z,6.80
2019-02-14T00:55:24.633Z,6.43
2019-02-14T00:57:52.223Z,6.50
2019-02-14T01:00:19.717Z,6.90
2019-02-14T01:02:47.175Z,7.67
2019-02-14T01:05:16.395Z,7.50
2019-02-14T01:07:43.949Z,7.43
2019-02-14T01:10:11.430Z,7.17
2019-02-14T01:12:38.927Z,7.17
2019-02-14T01:15:07.900Z,7.20
2019-02-14T01:17:35.262Z,7.87
2019-02-14T01:20:03.011Z,7.77
2019-02-14T01:22:30.500Z,6.80
2019-02-14T01:24:58.002Z,7.87
2019-02-14T01:27:25.440Z,6.60
2019-02-14T01:29:52.936Z,6.77
2019-02-14T01:32:20.560Z,7.57
2019-02-14T01:34:47.969Z,7.53
2019-02-14T01:37:15.483Z,7.20
2019-02-14T01:39:42.945Z,6.53
2019-02-14T01:42:10.435Z,9.13
2019-02-14T01:44:38.230Z,7.20
2019-02-14T01:47:05.621Z,7.67
2019-02-14T01:49:33.099Z,6.67
2019-02-14T01:52:00.564Z,7.40
2019-02-14T01:54:28.004Z,7.77
2019-02-14T01:56:55.504Z,7.10
2019-02-14T01:59:22.979Z,8.07
2019-02-14T02:01:50.457Z,7.03
2019-02-14T02:04:17.884Z,7.47
2019-02-14T02:06:45.375Z,6.97
2019-02-14T02:09:12.744Z,7.40
2019-02-14T02:11:40.116Z,8.80
2019-02-14T02:14:08.630Z,8.13
2019-02-14T02:16:36.402Z,8.63
2019-02-14T02:19:03.871Z,6.77
2019-02-14T02:21:31.359Z,8.27
2019-02-14T02:23:58.848Z,8.17
2019-02-14T02:26:26.306Z,6.87
2019-02-14T02:28:53.692Z,6.80
2019-02-14T02:31:21.173Z,9.43
2019-02-14T02:33:48.654Z,8.83
2019-02-14T02:36:16.108Z,8.23
2019-02-14T02:38:43.576Z,6.27
2019-02-14T02:41:11.086Z,8.20
2019-02-14T02:43:38.544Z,7.27
2019-02-14T02:46:06.015Z,8.50
2019-02-14T02:48:33.505Z,6.60
2019-02-14T02:51:00.933Z,7.03
2019-02-14T02:53:28.304Z,7.13
2019-02-14T02:55:55.812Z,7.47
2019-02-14T02:58:23.281Z,7.60
2019-02-14T03:00:50.728Z,6.63
2019-02-14T03:03:18.212Z,6.83
2019-02-14T03:05:45.666Z,8.03
2019-02-14T03:08:13.046Z,8.33
2019-02-14T03:10:40.523Z,6.93
2019-02-14T03:13:07.964Z,7.70
2019-02-14T03:15:35.466Z,6.57
2019-02-14T03:18:02.910Z,7.00
2019-02-14T03:20:30.406Z,7.87
2019-02-14T03:22:57.778Z,7.60
2019-02-14T03:25:25.236Z,7.07
2019-02-14T03:27:52.729Z,6.37
2019-02-14T03:30:20.189Z,7.23
2019-02-14T03:32:47.678Z,7.30
2019-02-14T03:35:15.180Z,8.47
2019-02-14T03:37:42.703Z,5.73
2019-02-14T03:40:10.706Z,7.00
2019-02-14T03:42:38.234Z,7.93
2019-02-14T03:45:08.072Z,7.30
2019-02-14T03:47:35.565Z,7.77
2019-02-14T03:50:03.227Z,7.13
2019-02-14T03:52:30.678Z,6.80
2019-02-14T03:54:58.141Z,7.63
2019-02-14T03:57:26.365Z,8.43
2019-02-14T03:59:53.857Z,6.53
2019-02-14T04:02:21.317Z,6.57
2019-02-14T04:04:48.859Z,6.30
2019-02-14T04:07:16.318Z,6.77
2019-02-14T04:09:43.802Z,5.43
2019-02-14T04:12:11.253Z,5.90
2019-02-14T04:14:38.699Z,5.37
2019-02-14T04:17:06.053Z,5.27
2019-02-14T04:19:33.433Z,5.93
2019-02-14T04:22:00.935Z,6.73
2019-02-14T04:24:28.404Z,6.97
2019-02-14T04:26:55.747Z,5.47
2019-02-14T04:29:23.160Z,6.50
2019-02-14T04:31:50.603Z,7.03
2019-02-14T04:34:18.081Z,5.97
2019-02-14T04:36:45.531Z,6.47
2019-02-14T04:39:12.985Z,5.33
2019-02-14T04:41:40.417Z,5.80
2019-02-14T04:44:07.909Z,5.80
2019-02-14T04:46:35.375Z,5.90
2019-02-14T04:49:02.872Z,5.40
2019-02-14T04:51:30.358Z,6.20
2019-02-14T04:53:57.972Z,6.00
2019-02-14T04:56:25.403Z,7.47
2019-02-14T04:58:53.443Z,5.97
2019-02-14T05:01:21.987Z,6.17
2019-02-14T05:03:49.484Z,5.50
2019-02-14T05:06:16.983Z,7.10
2019-02-14T05:08:44.497Z,7.17
2019-02-14T05:11:12.003Z,4.90
2019-02-14T05:13:39.454Z,6.10
2019-02-14T05:16:07.398Z,6.50
2019-02-14T05:18:34.907Z,6.47
2019-02-14T05:21:02.407Z,6.63
2019-02-14T05:23:29.917Z,6.27
2019-02-14T05:25:57.556Z,6.47
2019-02-14T05:28:25.037Z,6.37
2019-02-14T05:30:52.538Z,5.57
2019-02-14T05:33:20.035Z,6.00
2019-02-14T05:35:47.542Z,5.80
2019-02-14T05:38:14.964Z,6.20
2019-02-14T05:40:42.478Z,5.57
2019-02-14T05:43:09.975Z,6.70
2019-02-14T05:45:37.460Z,6.00
2019-02-14T05:48:06.776Z,6.87
2019-02-14T05:50:34.203Z,7.07
2019-02-14T05:53:02.816Z,6.43
2019-02-14T05:55:30.326Z,5.90
2019-02-14T05:57:59.288Z,7.80
2019-02-14T06:00:26.652Z,6.63
2019-02-14T06:02:54.142Z,5.37
2019-02-14T06:05:21.678Z,6.63
2019-02-14T06:07:49.411Z,6.40
2019-02-14T06:10:16.916Z,6.97
2019-02-14T06:12:44.296Z,6.43
2019-02-14T06:15:12.003Z,6.30
2019-02-14T06:17:39.464Z,6.63
2019-02-14T06:20:07.319Z,8.87
2019-02-14T06:22:34.789Z,7.93
2019-02-14T06:25:04.476Z,8.30
2019-02-14T06:27:31.933Z,8.00
2019-02-14T06:29:59.548Z,6.33
2019-02-14T06:32:27.097Z,6.77
2019-02-14T06:34:54.852Z,6.87
2019-02-14T06:37:22.356Z,7.73
2019-02-14T06:39:50.234Z,7.23
2019-02-14T06:42:17.616Z,7.13
2019-02-14T06:44:45.189Z,7.93
2019-02-14T06:47:12.630Z,7.90
2019-02-14T06:49:40.162Z,6.57
2019-02-14T06:52:07.535Z,6.47
2019-02-14T06:54:35.408Z,7.20
2019-02-14T06:57:03.294Z,6.90
2019-02-14T06:59:30.792Z,7.27
2019-02-14T07:01:58.276Z,5.90
2019-02-14T07:04:25.817Z,5.43
2019-02-14T07:06:53.373Z,5.63
2019-02-14T07:09:20.869Z,6.53
2019-02-14T07:11:49.177Z,5.90
2019-02-14T07:14:16.700Z,6.93
2019-02-14T07:16:44.220Z,6.43
2019-02-14T07:19:11.676Z,7.63
2019-02-14T07:21:39.460Z,5.90
2019-02-14T07:24:07.002Z,7.07
2019-02-14T07:26:34.492Z,6.23
2019-02-14T07:29:01.961Z,7.13
2019-02-14T07:31:30.699Z,6.87
2019-02-14T07:33:58.194Z,6.00
2019-02-14T07:36:25.589Z,6.23
2019-02-14T07:38:53.074Z,5.93
2019-02-14T07:41:20.524Z,5.80
2019-02-14T07:43:47.991Z,8.07
2019-02-14T07:46:22.546Z,7.83
2019-02-14T07:48:44.652Z,7.27
2019-02-14T07:51:12.146Z,9.70
2019-02-14T07:53:39.608Z,6.93
2019-02-14T07:56:07.024Z,6.93
2019-02-14T07:58:34.544Z,6.83
2019-02-14T08:01:02.038Z,6.83
2019-02-14T08:03:29.520Z,7.20
2019-02-14T08:05:57.102Z,6.50
2019-02-14T08:08:24.551Z,7.13
2019-02-14T08:10:52.046Z,6.20
2019-02-14T08:13:19.540Z,7.73
2019-02-14T08:15:47.013Z,7.20
2019-02-14T08:18:14.468Z,7.73
2019-02-14T08:20:41.863Z,7.73
2019-02-14T08:23:09.363Z,7.10
2019-02-14T08:25:36.863Z,8.03
2019-02-14T08:28:04.320Z,6.33
2019-02-14T08:30:31.870Z,6.57
2019-02-14T08:32:59.665Z,6.10
2019-02-14T08:35:27.171Z,6.47
2019-02-14T08:37:54.629Z,5.80
2019-02-14T08:40:23.365Z,6.20
2019-02-14T08:42:50.896Z,6.63
2019-02-14T08:45:18.342Z,6.33
2019-02-14T08:47:45.872Z,6.83
2019-02-14T08:50:13.338Z,5.27
2019-02-14T08:52:40.804Z,7.30
2019-02-14T08:55:09.898Z,6.13
2019-02-14T08:57:37.475Z,5.80
2019-02-14T09:00:06.194Z,6.07
2019-02-14T09:02:33.646Z,4.73
2019-02-14T09:05:01.227Z,4.73
2019-02-14T09:07:28.713Z,4.57
2019-02-14T09:09:56.430Z,4.70
2019-02-14T09:12:24.149Z,5.47
2019-02-14T09:14:51.679Z,4.67
2019-02-14T09:17:19.145Z,5.00
2019-02-14T09:19:46.529Z,4.23
2019-02-14T09:22:14.023Z,4.50
2019-02-14T09:24:41.547Z,4.70
2019-02-14T09:27:09.018Z,3.93
2019-02-14T09:29:36.509Z,4.50
2019-02-14T09:32:04.054Z,4.63
2019-02-14T09:34:31.535Z,5.10
2019-02-14T09:36:59.071Z,4.67
2019-02-14T09:39:26.567Z,4.80
2019-02-14T09:41:53.960Z,6.23
2019-02-14T09:44:21.413Z,4.77
2019-02-14T09:46:48.873Z,5.10
2019-02-14T09:49:16.360Z,5.10
2019-02-14T09:51:43.850Z,5.03
2019-02-14T09:54:11.372Z,5.00
2019-02-14T09:56:38.826Z,4.43
2019-02-14T09:59:07.619Z,5.20
2019-02-14T10:01:35.103Z,4.90
2019-02-14T10:04:02.678Z,5.13
2019-02-14T10:06:36.459Z,5.93
2019-02-14T10:09:00.704Z,5.13
2019-02-14T10:11:28.369Z,5.00
2019-02-14T10:13:55.760Z,5.30
2019-02-14T10:16:23.209Z,5.13
2019-02-14T10:18:50.748Z,4.87
2019-02-14T10:21:18.205Z,5.83
2019-02-14T10:23:45.695Z,5.80
2019-02-14T10:26:13.213Z,7.13
2019-02-14T10:28:40.675Z,5.83
2019-02-14T10:31:08.341Z,5.20
2019-02-14T10:33:35.831Z,5.17
2019-02-14T10:36:04.504Z,5.50
2019-02-14T10:38:32.067Z,5.10
2019-02-14T10:40:59.790Z,5.53
2019-02-14T10:43:27.263Z,5.53
2019-02-14T10:45:54.750Z,5.90
2019-02-14T10:48:22.214Z,5.57
2019-02-14T10:50:49.696Z,5.80
2019-02-14T10:53:17.059Z,5.53
2019-02-14T10:55:44.558Z,6.60
2019-02-14T10:58:11.986Z,6.47
2019-02-14T11:00:39.553Z,5.97
2019-02-14T11:03:07.029Z,6.40
2019-02-14T11:05:35.595Z,5.87
2019-02-14T11:08:03.080Z,6.50
2019-02-14T11:10:30.556Z,6.73
2019-02-14T11:12:58.038Z,6.53
2019-02-14T11:15:25.531Z,7.90
2019-02-14T11:17:53.015Z,6.40
2019-02-14T11:20:20.549Z,6.83
2019-02-14T11:22:48.996Z,6.80
2019-02-14T11:25:26.278Z,6.97
2019-02-14T11:27:53.785Z,6.47
2019-02-14T11:30:21.297Z,6.50
2019-02-14T11:32:49.564Z,7.03
2019-02-14T11:35:17.000Z,6.50
2019-02-14T11:37:44.496Z,6.37
2019-02-14T11:40:12.205Z,7.23
2019-02-14T11:42:39.664Z,6.33
2019-02-14T11:45:09.582Z,6.83
2019-02-14T11:47:37.028Z,5.73
2019-02-14T11:50:06.540Z,5.50
2019-02-14T11:52:34.163Z,5.87
2019-02-14T11:55:01.670Z,5.77
2019-02-14T11:57:29.201Z,6.20
2019-02-14T11:59:56.660Z,6.73
2019-02-14T12:02:24.238Z,5.43
2019-02-14T12:04:53.492Z,5.73
2019-02-14T12:07:23.126Z,6.97
2019-02-14T12:09:50.627Z,6.80
2019-02-14T12:12:17.999Z,5.70
2019-02-14T12:14:45.511Z,5.03
2019-02-14T12:17:13.032Z,5.07
2019-02-14T12:19:40.557Z,5.37
2019-02-14T12:22:08.125Z,5.03
2019-02-14T12:24:35.653Z,5.17
2019-02-14T12:27:03.186Z,5.20
2019-02-14T12:29:30.832Z,5.93
2019-02-14T12:31:58.287Z,5.40
2019-02-14T12:34:25.758Z,5.27
2019-02-14T12:36:53.235Z,4.80
2019-02-14T12:39:20.735Z,5.13
2019-02-14T12:41:48.247Z,4.63
2019-02-14T12:44:15.730Z,4.63
2019-02-14T12:46:43.239Z,5.13
2019-02-14T12:49:10.734Z,4.40
2019-02-14T12:51:38.246Z,4.23
2019-02-14T12:54:05.727Z,4.50
2019-02-14T12:56:33.257Z,5.20
2019-02-14T12:59:00.736Z,4.30
2019-02-14T13:01:28.287Z,4.43
2019-02-14T13:03:55.859Z,4.03
2019-02-14T13:06:23.508Z,4.40
2019-02-14T13:08:50.967Z,4.20
2019-02-14T13:11:18.529Z,4.67
2019-02-14T13:13:50.079Z,4.40
2019-02-14T13:16:15.355Z,4.10
2019-02-14T13:18:44.592Z,4.30
2019-02-14T13:21:12.043Z,4.40
2019-02-14T13:23:39.539Z,4.87
2019-02-14T13:26:07.003Z,4.07
2019-02-14T13:28:34.530Z,4.70
2019-02-14T13:31:02.077Z,4.87
2019-02-14T13:33:29.597Z,4.83
2019-02-14T13:35:57.103Z,4.40
2019-02-14T13:38:24.564Z,4.83
2019-02-14T13:40:51.961Z,4.77
2019-02-14T13:43:19.398Z,4.20
2019-02-14T13:45:46.795Z,4.03
2019-02-14T13:48:14.253Z,5.10
2019-02-14T13:50:41.735Z,4.50
2019-02-14T13:53:09.247Z,4.43
2019-02-14T13:55:36.761Z,4.50
2019-02-14T13:58:04.305Z,4.43
2019-02-14T14:00:31.819Z,4.17
2019-02-14T14:02:59.319Z,4.07
2019-02-14T14:05:26.886Z,3.93
2019-02-14T14:07:55.948Z,4.03
2019-02-14T14:10:23.454Z,4.13
2019-02-14T14:12:50.915Z,4.30
2019-02-14T14:15:21.200Z,4.47
2019-02-14T14:17:48.846Z,4.40
2019-02-14T14:20:16.430Z,4.00
2019-02-14T14:22:44.020Z,4.23
2019-02-14T14:27:56.937Z,4.20
2019-02-14T14:30:24.858Z,4.23
2019-02-14T14:32:52.274Z,4.73
2019-02-14T14:35:20.300Z,4.50
2019-02-14T14:37:47.894Z,4.37
2019-02-14T14:40:15.392Z,4.93
2019-02-14T14:43:05.146Z,4.53
2019-02-14T14:45:55.100Z,4.87
2019-02-14T14:48:23.407Z,4.50
2019-02-14T14:50:50.923Z,4.57
2019-02-14T14:53:18.444Z,4.83
2019-02-14T14:55:45.914Z,5.00
2019-02-14T14:58:13.355Z,5.30
2019-02-14T15:00:40.808Z,5.40
2019-02-14T15:03:08.254Z,4.73
2019-02-14T15:05:35.692Z,6.23
2019-02-14T15:08:03.169Z,5.47
2019-02-14T15:10:30.661Z,4.80
2019-02-14T15:12:58.130Z,4.40
2019-02-14T15:15:25.626Z,4.20
2019-02-14T15:17:53.073Z,4.43
2019-02-14T15:20:20.697Z,4.43
2019-02-14T15:22:48.411Z,4.17
2019-02-14T15:25:17.362Z,4.87
2019-02-14T15:27:44.886Z,4.27
2019-02-14T15:30:12.332Z,5.50
2019-02-14T15:32:40.968Z,5.07
2019-02-14T15:35:08.633Z,5.63
2019-02-14T15:37:36.038Z,5.47
2019-02-14T15:40:09.103Z,5.70
2019-02-14T15:42:33.227Z,5.13
2019-02-14T15:45:00.618Z,5.20
2019-02-14T15:47:28.142Z,4.90
2019-02-14T15:49:55.731Z,4.70
2019-02-14T15:52:23.217Z,4.87
2019-02-14T15:54:50.700Z,4.37
2019-02-14T15:57:20.440Z,5.30
2019-02-14T15:59:47.985Z,4.57
2019-02-14T16:02:15.494Z,5.30
2019-02-14T16:04:47.201Z,4.50
2019-02-14T16:07:15.358Z,5.30
2019-02-14T16:09:43.863Z,5.07
2019-02-14T16:12:11.279Z,5.13
2019-02-14T16:14:40.570Z,5.07
2019-02-14T16:17:13.100Z,4.67
2019-02-14T16:19:39.409Z,4.87
2019-02-14T16:22:08.418Z,4.63
2019-02-14T16:24:35.897Z,4.60
2019-02-14T16:27:03.494Z,6.20
2019-02-14T16:29:30.897Z,6.43
2019-02-14T16:31:58.389Z,4.93
2019-02-14T16:34:25.899Z,5.47
2019-02-14T16:36:53.397Z,4.77
2019-02-14T16:42:10.076Z,3.90
2019-02-14T16:44:37.717Z,4.73
2019-02-14T16:47:05.571Z,6.87
2019-02-14T16:49:32.999Z,7.03
2019-02-14T16:52:00.565Z,7.37
2019-02-14T16:54:28.073Z,6.67
2019-02-14T16:56:55.553Z,5.93
2019-02-14T16:59:23.195Z,6.63
2019-02-14T17:01:50.647Z,6.20
2019-02-14T17:04:20.015Z,6.43
2019-02-14T17:06:47.485Z,5.27
2019-02-14T17:09:14.985Z,4.53
2019-02-14T17:11:43.560Z,4.73
2019-02-14T17:14:11.094Z,4.77
2019-02-14T17:16:38.576Z,4.90
2019-02-14T17:19:06.029Z,5.70
2019-02-14T17:21:33.593Z,4.90
2019-02-14T17:24:01.141Z,6.40
2019-02-14T17:26:28.713Z,6.30
2019-02-14T17:28:59.784Z,5.37
2019-02-14T17:31:27.521Z,5.57
2019-02-14T17:33:57.257Z,5.93
2019-02-14T17:36:25.138Z,6.80
2019-02-14T17:41:39.442Z,5.77
2019-02-14T17:44:06.924Z,6.23
2019-02-14T17:46:34.691Z,6.00
2019-02-14T17:49:02.339Z,7.13
2019-02-14T17:51:30.007Z,6.00
2019-02-14T17:53:57.602Z,6.00
2019-02-14T17:56:25.063Z,7.13
2019-02-14T17:58:52.589Z,7.00
2019-02-14T18:01:20.583Z,7.43
2019-02-14T18:03:48.101Z,7.63
2019-02-14T18:06:15.562Z,6.23
2019-02-14T18:08:44.091Z,5.97
2019-02-14T18:11:11.551Z,6.07
2019-02-14T18:13:39.064Z,5.83
2019-02-14T18:16:06.571Z,6.57
2019-02-14T18:18:34.141Z,7.63
2019-02-14T18:21:01.650Z,7.23
2019-02-14T18:23:29.011Z,6.20
2019-02-14T18:25:56.551Z,6.77
2019-02-14T18:28:24.043Z,6.57
2019-02-14T18:30:51.564Z,6.93
2019-02-14T18:33:19.002Z,6.83
2019-02-14T18:35:46.504Z,6.50
2019-02-14T18:38:13.928Z,7.00
2019-02-14T18:40:41.473Z,6.67
2019-02-14T18:43:09.029Z,7.73
2019-02-14T18:45:36.443Z,6.07
2019-02-14T18:48:04.986Z,6.63
2019-02-14T18:50:32.554Z,7.77
2019-02-14T18:53:00.028Z,7.50
2019-02-14T18:55:27.526Z,6.20
2019-02-14T18:57:55.747Z,7.00
2019-02-14T19:00:24.050Z,5.87
2019-02-14T19:02:51.599Z,6.47
2019-02-14T19:05:19.116Z,7.33
2019-02-14T19:07:46.568Z,8.17
2019-02-14T19:10:14.224Z,8.33
2019-02-14T19:12:41.765Z,9.00
2019-02-14T19:15:09.794Z,7.77
2019-02-14T19:17:37.353Z,8.50
2019-02-14T19:20:05.460Z,8.60
2019-02-14T19:22:32.814Z,7.57
2019-02-14T19:25:00.510Z,7.30
2019-02-14T19:27:27.941Z,8.47
2019-02-14T19:29:55.404Z,8.80
2019-02-14T19:32:23.018Z,8.47
2019-02-14T19:34:52.400Z,7.80
2019-02-14T19:37:25.936Z,7.87
2019-02-14T19:39:53.849Z,8.40
2019-02-14T19:42:21.697Z,5.40
2019-02-14T19:44:49.300Z,5.53
2019-02-14T19:47:16.787Z,7.70
2019-02-14T19:49:44.273Z,6.90
2019-02-14T19:52:12.071Z,7.90
2019-02-14T19:54:39.530Z,7.67
2019-02-14T19:57:06.986Z,9.17
2019-02-14T19:59:34.496Z,9.03
2019-02-14T20:02:01.992Z,9.73
2019-02-14T20:04:29.436Z,8.33
2019-02-14T20:06:56.950Z,11.03
2019-02-14T20:09:24.407Z,8.83
2019-02-14T20:11:51.892Z,8.10
2019-02-14T20:14:19.608Z,8.50
2019-02-14T20:16:47.083Z,9.00
2019-02-14T20:19:14.598Z,8.73
2019-02-14T20:21:42.143Z,9.37
2019-02-14T20:24:09.634Z,10.20
2019-02-14T20:26:38.148Z,10.70
2019-02-14T20:29:05.714Z,9.73
2019-02-14T20:31:33.410Z,10.47
2019-02-14T20:34:00.872Z,10.97
2019-02-14T20:36:28.352Z,9.77
2019-02-14T20:38:55.941Z,10.97
2019-02-14T20:41:23.561Z,11.23
2019-02-14T20:43:51.008Z,10.33
2019-02-14T20:46:18.894Z,11.70
2019-02-14T20:48:46.494Z,12.43
2019-02-14T20:51:14.009Z,13.53
2019-02-14T20:53:41.691Z,12.93
2019-02-14T20:56:09.231Z,11.90
2019-02-14T20:58:36.715Z,12.90
2019-02-14T21:01:06.887Z,11.70
2019-02-14T21:03:34.462Z,12.63
2019-02-14T21:06:02.133Z,11.03
2019-02-14T21:08:29.722Z,11.47
2019-02-14T21:10:57.477Z,11.67
2019-02-14T21:13:25.053Z,11.47
2019-02-14T21:15:53.452Z,11.10
2019-02-14T21:18:21.250Z,11.73
2019-02-14T21:20:48.849Z,11.67
2019-02-14T21:23:16.406Z,9.83
2019-02-14T21:25:43.904Z,11.17
2019-02-14T21:28:11.477Z,10.13
2019-02-14T21:30:39.110Z,9.80
2019-02-14T21:33:08.051Z,11.07
2019-02-14T21:35:35.546Z,11.20
2019-02-14T21:38:04.027Z,11.03
2019-02-14T21:40:31.835Z,12.40
2019-02-14T21:42:59.295Z,10.93
2019-02-14T21:45:27.236Z,9.80
2019-02-14T21:47:55.148Z,9.20
2019-02-14T21:50:22.959Z,9.20
2019-02-14T21:52:50.549Z,11.37
2019-02-14T21:55:18.357Z,11.50
2019-02-14T21:57:46.012Z,10.93
2019-02-14T22:00:16.550Z,11.43
2019-02-14T22:02:44.926Z,11.67
2019-02-14T22:05:12.442Z,10.27
2019-02-14T22:07:39.864Z,12.27
2019-02-14T22:10:08.112Z,10.60
2019-02-14T22:12:40.666Z,10.57
2019-02-14T22:15:06.302Z,11.90
2019-02-14T22:17:33.744Z,11.23
2019-02-14T22:20:01.239Z,11.27
2019-02-14T22:22:28.755Z,10.67
2019-02-14T22:24:56.215Z,12.00
2019-02-14T22:27:23.745Z,10.90
2019-02-14T22:29:51.187Z,11.63
2019-02-14T22:32:18.686Z,10.83
2019-02-14T22:34:46.633Z,12.30
2019-02-14T22:37:14.113Z,11.20
2019-02-14T22:39:41.637Z,12.30
2019-02-14T22:42:09.166Z,12.30
2019-02-14T22:44:36.641Z,9.13
2019-02-14T22:47:04.072Z,9.50
2019-02-14T22:49:31.562Z,9.27
2019-02-14T22:51:59.123Z,10.83
2019-02-14T22:54:26.603Z,9.37
2019-02-14T22:56:54.059Z,10.20
2019-02-14T22:59:21.764Z,10.60
2019-02-14T23:01:49.879Z,10.33
2019-02-14T23:04:17.357Z,9.53
2019-02-14T23:06:44.854Z,9.13
2019-02-14T23:09:12.564Z,8.50
2019-02-14T23:11:40.896Z,9.23
2019-02-14T23:14:08.652Z,9.73
2019-02-14T23:16:36.144Z,8.47
2019-02-14T23:19:03.749Z,9.33
2019-02-14T23:21:32.610Z,8.43
2019-02-14T23:24:00.092Z,8.23
2019-02-14T23:26:27.570Z,9.07
2019-02-14T23:28:55.074Z,9.77
2019-02-14T23:31:22.611Z,8.27
2019-02-14T23:33:50.074Z,9.03
2019-02-14T23:36:17.656Z,9.33
2019-02-14T23:38:45.151Z,9.20
2019-02-14T23:41:12.650Z,8.57
2019-02-14T23:43:40.046Z,7.67
2019-02-14T23:46:07.576Z,7.73
2019-02-14T23:48:35.038Z,7.40
2019-02-14T23:51:03.654Z,8.03
2019-02-14T23:53:31.251Z,7.83
2019-02-14T23:55:58.743Z,8.67
2019-02-14T23:58:26.169Z,7.53
